Date,TemperatureHighF,TemperatureAvgF,TemperatureLowF,DewpointHighF,DewpointAvgF,DewpointLowF,HumidityHigh,HumidityAvg,HumidityLow,PressureMaxIn,PressureMinIn,WindSpeedMaxMPH,WindSpeedAvgMPH,GustSpeedMaxMPH,PrecipitationSumIn
2013-1-23,71,69,62,-100,-100,-100,67,54,51,0.00,40.00,0,-999,0,0.00
2013-1-24,72,69,64,-100,-100,-100,62,55,50,0.00,40.00,0,-999,0,0.00
2013-1-25,75,69,63,-100,-100,-100,68,57,49,0.00,40.00,0,-999,0,0.00
2013-1-26,78,68,61,-100,-100,-100,62,53,38,0.00,40.00,0,-999,0,0.00
2013-1-27,77,67,59,-100,-100,-100,52,48,36,0.00,40.00,0,-999,0,0.00
2013-1-28,74,67,61,-100,-100,-100,52,47,41,29.97,40.00,26,-999,0,0.00
2013-1-29,72,66,60,-100,-100,-100,51,49,38,0.00,40.00,0,-999,0,0.00
2013-1-30,72,69,66,-100,-100,-100,55,48,37,0.00,40.00,0,-999,0,0.00
2013-1-31,71,68,62,-100,-100,-100,56,52,45,0.00,40.00,0,-999,0,0.00
2013-2-1,71,64,55,51,-45,-100,80,58,46,30.12,30.03,67,-627,0,0.00
2013-2-2,71,59,53,51,49,45,82,69,46,30.19,30.11,0,0,0,0.07
2013-2-3,76,58,52,51,46,42,82,65,37,30.15,30.03,0,0,0,0.12
2013-2-4,73,57,52,50,48,44,80,71,42,30.08,29.96,0,0,0,0.20
2013-2-5,74,58,51,50,47,43,77,67,42,30.05,29.96,0,0,0,0.64
2013-2-6,81,56,47,48,45,40,86,68,32,30.09,30.02,0,0,0,0.76
2013-2-7,74,54,48,50,44,38,90,70,37,30.07,29.88,0,0,0,1.00
2013-2-8,74,55,45,47,42,28,86,62,36,29.92,29.82,0,0,0,1.21
2013-2-9,69,54,46,42,34,23,73,48,19,29.98,29.88,0,0,0,1.35
2013-2-10,68,53,45,44,38,32,80,58,29,30.02,29.91,0,0,0,1.41
2013-2-11,73,55,46,47,39,27,83,57,22,30.13,29.96,0,0,0,1.45
2013-2-12,71,55,47,48,45,39,85,70,36,30.25,30.12,0,0,0,1.55
2013-2-13,71,54,46,49,46,39,89,74,42,30.24,30.11,0,0,0,1.60
2013-2-14,77,58,48,49,45,40,92,64,28,30.14,30.04,0,0,0,1.65
2013-2-15,79,62,50,47,43,38,78,53,27,30.16,30.09,0,0,0,1.71
2013-2-16,74,60,53,50,46,43,83,62,34,30.12,29.95,0,0,0,1.75
2013-2-17,72,56,50,48,46,41,84,70,41,29.95,29.86,0,0,0,1.78
2013-2-18,66,54,49,47,43,36,85,66,44,29.94,29.86,0,0,0,1.83
2013-2-19,60,51,47,47,41,33,95,69,52,29.87,29.65,0,0,0,2.09
2013-2-20,73,53,44,44,39,33,79,60,31,29.95,29.74,0,0,0,2.30
2013-2-21,72,55,48,45,39,30,79,57,30,30.06,29.94,0,0,0,2.32
2013-2-22,73,55,46,46,43,37,83,67,27,30.15,30.05,0,0,0,2.38
2013-2-23,70,57,52,49,41,30,85,56,29,30.16,30.06,0,0,0,2.43
2013-2-24,72,56,49,45,34,23,83,45,20,30.15,30.06,0,0,0,2.47
2013-2-25,72,55,48,48,44,39,85,67,39,30.16,30.06,0,0,0,2.52
2013-2-26,74,56,47,44,38,25,79,56,22,30.11,30.03,0,0,0,2.57
2013-2-27,74,57,47,49,44,36,80,64,34,30.26,30.09,0,0,0,2.75
2013-2-28,73,58,50,52,50,47,93,76,49,30.35,30.26,0,0,0,2.93
2013-3-1,77,61,50,53,50,46,95,69,38,30.32,30.12,0,0,0,3.03
2013-3-2,71,60,52,52,50,48,90,71,48,30.14,29.97,0,0,0,3.08
2013-3-3,71,57,51,51,49,45,90,76,49,30.00,29.94,0,0,0,3.19
2013-3-4,64,54,49,49,45,42,87,73,52,30.05,29.94,0,0,0,3.27
2013-3-5,63,52,46,49,43,38,99,71,49,29.97,29.73,0,0,0,3.45
2013-3-6,62,55,49,50,46,40,99,71,50,29.96,29.74,0,0,0,3.78
2013-3-7,62,54,47,48,44,34,85,71,41,29.89,29.75,0,0,0,3.90
2013-3-8,65,55,50,47,45,42,82,68,48,29.94,29.72,0,0,0,4.01
2013-3-9,70,57,47,47,44,39,86,64,39,30.20,29.94,0,0,0,4.08
2013-3-10,75,57,48,50,45,36,88,67,34,30.24,30.15,0,0,0,4.11
2013-3-11,75,58,49,51,47,39,89,69,29,30.16,30.00,1,0,0,4.19
2013-3-12,78,58,48,52,50,47,95,77,38,30.06,29.96,0,0,0,4.29
2013-3-13,77,58,48,54,50,46,99,77,41,30.06,29.95,0,0,0,4.41
2013-3-14,68,56,49,53,49,47,95,79,52,30.07,29.97,0,0,0,4.48
2013-3-15,71,58,50,52,50,47,94,76,47,30.03,29.94,0,0,0,4.53
2013-3-16,70,58,49,53,49,45,99,75,47,30.02,29.92,0,0,0,4.61
2013-3-17,71,57,50,48,45,37,85,66,32,30.05,29.94,0,0,0,4.72
2013-3-18,69,56,48,50,47,44,91,73,46,30.03,29.93,0,0,0,4.77
2013-3-19,69,56,50,51,47,40,88,71,40,30.04,29.95,0,0,0,4.84
2013-3-20,63,57,53,58,52,47,94,84,67,30.04,29.95,0,0,0,4.96
2013-3-21,70,56,48,51,45,40,88,67,38,30.03,29.91,0,0,0,4.98
2013-3-22,75,57,47,46,40,25,87,57,23,30.02,29.91,0,0,0,5.02
2013-3-23,74,58,48,46,40,28,84,56,22,30.04,29.94,0,0,0,5.16
2013-3-24,68,56,48,50,47,45,91,74,46,29.99,29.88,0,0,0,5.22
2013-3-25,63,55,49,49,47,44,88,74,53,29.94,29.82,0,0,0,5.27
2013-3-26,68,58,52,50,48,44,86,70,51,29.91,29.84,0,0,0,5.30
2013-3-27,68,58,52,57,53,48,94,81,65,29.91,29.84,0,0,0,5.43
2013-3-28,69,62,55,57,55,51,96,79,59,29.99,29.89,0,0,0,5.45
2013-3-29,82,62,53,56,53,49,98,76,37,29.98,29.91,0,0,0,5.47
2013-3-30,74,61,53,58,54,48,99,81,50,29.97,29.87,0,0,0,5.53
2013-3-31,68,59,56,60,56,53,99,87,59,29.96,29.89,0,0,0,5.81
2013-4-1,73,60,55,59,55,51,99,85,56,30.05,29.94,0,0,0,5.99
2013-4-2,80,58,52,57,53,51,99,84,43,30.09,29.99,0,0,0,6.03
2013-4-3,89,58,50,56,52,43,99,83,32,30.04,29.90,0,0,0,6.07
2013-4-4,68,58,52,60,57,52,99,94,75,30.02,29.88,0,0,0,6.53
2013-4-5,69,61,56,60,57,53,99,88,62,30.09,30.01,0,0,0,6.56
2013-4-6,66,59,54,60,57,53,99,93,75,30.10,30.02,0,0,0,6.62
2013-4-7,67,59,54,59,56,50,99,88,66,30.07,29.75,0,0,0,6.69
2013-4-8,86,60,52,54,44,32,91,58,18,29.92,29.69,0,0,0,6.74
2013-4-9,96,67,58,48,40,30,54,38,15,30.00,29.92,0,0,0,6.84
2013-4-10,109,67,55,55,49,-100,94,59,18,30.07,29.93,0,0,0,6.88
2013-4-11,98,62,51,55,50,40,95,68,23,29.97,29.75,0,0,0,6.94
2013-4-12,91,57,49,53,50,47,99,79,26,29.82,29.74,0,0,0,6.99
2013-4-13,95,59,50,52,47,42,95,67,23,29.80,29.73,0,0,0,0.01
2013-4-14,99,59,49,51,42,-100,90,59,17,29.84,29.76,0,0,0,0.05
2013-4-15,89,58,48,52,43,37,94,62,21,29.86,29.75,12,0,0,0.12
2013-4-16,104,58,48,43,38,29,70,48,25,30.05,29.85,10,0,0,0.07
2013-4-17,104,65,54,48,28,-100,72,36,9,30.17,30.05,12,1,0,0.05
2013-4-18,148,67,51,50,33,-100,88,55,7,30.16,30.08,30,1,0,0.00
2013-4-19,150,68,51,52,36,-100,94,61,10,30.13,29.96,11,1,0,0.01
2013-4-20,150,68,52,52,35,-100,91,62,8,30.01,29.89,21,1,0,0.00
2013-4-21,150,67,52,53,33,-100,87,54,9,29.94,29.82,9,0,0,0.03
2013-4-22,150,69,57,52,31,-100,80,48,8,29.87,29.75,10,1,0,0.04
2013-4-23,149,70,55,51,32,-100,85,52,8,29.84,29.76,32,1,0,0.00
2013-4-24,123,64,52,52,37,-100,91,68,13,29.85,29.73,35,1,0,0.01
2013-4-25,69,61,56,54,52,48,87,72,51,30.04,29.85,12,1,0,0.01
2013-4-26,126,68,56,53,31,-100,84,65,12,30.15,30.03,12,0,0,0.01
2013-10-10,67,60,56,67,-4,-44,99,38,1,29.90,29.81,6,1,0,0.00
2013-10-11,109,61,53,72,20,-100,99,61,1,29.98,29.87,8,0,0,0.08
2013-10-12,108,60,52,71,10,-100,99,51,1,29.90,29.78,22,1,0,0.15
2013-10-13,122,64,53,73,12,-100,99,48,1,29.95,29.81,5,0,0,0.01
2013-10-14,119,67,54,70,25,-100,99,56,1,30.01,29.88,10,0,0,0.01
2013-10-15,122,82,60,67,-13,-100,99,23,1,29.93,29.85,4,1,0,0.01
2013-11-8,78,62,55,59,-4,-43,99,35,1,29.89,29.84,24,0,0,0.00
2013-11-9,113,62,51,62,20,-100,99,62,1,29.93,29.85,10,0,0,0.00
2013-11-10,107,61,54,62,29,-100,99,70,1,30.01,29.91,7,0,0,0.04
2013-11-11,89,62,56,62,2,-42,99,41,1,30.06,29.96,14,0,0,0.04
2013-11-12,79,65,59,61,-16,-42,99,20,1,30.15,30.03,6,0,0,0.03
2013-11-13,109,63,56,65,32,-100,99,73,1,30.14,29.99,5,0,0,0.03
2013-11-14,82,60,55,62,16,-42,99,54,1,30.01,29.76,7,0,0,0.02
2013-11-15,104,61,52,93,-3,-100,99,36,1,29.76,29.62,4,0,0,0.01
2013-11-16,99,60,51,96,10,-100,99,51,1,29.82,29.65,6,0,0,0.00
2013-11-17,85,59,53,59,10,-45,99,48,1,29.98,29.80,7,0,0,0.01
2013-11-18,74,58,50,57,13,-43,99,48,1,30.04,29.96,7,0,0,0.01
2013-11-19,64,59,55,61,46,-41,99,75,1,29.99,29.83,6,0,0,0.53
2013-11-20,65,60,57,64,60,57,99,99,99,29.83,29.72,3,0,0,0.75
2013-11-21,103,62,55,95,24,-100,99,65,1,29.87,29.78,6,1,0,0.01
2013-11-22,114,66,58,93,15,-100,99,65,1,29.91,29.81,18,2,0,0.01